Time;durP1;ratioP1;P1;durP2;ratioP2;P2;SDS_P1;SDS_P2;PMS_P1;PMS_P2;Temp;Humidity;BMP_temperature;BMP_pressure;BME280_temperature;BME280_humidity;BME280_pressure;Samples;Min_cycle;Max_cycle;Signal;HPM_P1;HPM_P2
2023/09/10 00:00:45;;;;;;;36.42;26.70;;;16.70;99.90;;;;;;5032952;28;20029;-66
2023/09/10 00:03:10;;;;;;;34.17;26.20;;;16.70;99.90;;;;;;5037867;28;20410;-65
2023/09/10 00:05:36;;;;;;;35.00;25.67;;;16.60;99.90;;;;;;5034675;28;20041;-65
2023/09/10 00:08:02;;;;;;;34.58;26.08;;;16.60;99.90;;;;;;5043893;28;20510;-65
2023/09/10 00:10:27;;;;;;;35.28;26.58;;;16.60;99.90;;;;;;5035570;28;20437;-65
2023/09/10 00:12:53;;;;;;;34.72;25.90;;;16.60;99.90;;;;;;5037848;28;20102;-66
2023/09/10 00:15:18;;;;;;;36.53;26.92;;;16.60;99.90;;;;;;5040905;28;20536;-65
2023/09/10 00:17:44;;;;;;;36.45;25.92;;;16.60;99.90;;;;;;5040394;28;20045;-65
2023/09/10 00:20:10;;;;;;;35.38;25.52;;;16.60;99.90;;;;;;5033992;28;20583;-66
2023/09/10 00:22:37;;;;;;;30.83;24.85;;;16.50;99.90;;;;;;5042621;28;20056;-65
2023/09/10 00:25:04;;;;;;;30.20;22.88;;;16.50;99.90;;;;;;5040539;28;21351;-66
2023/09/10 00:27:30;;;;;;;33.17;25.13;;;16.50;99.90;;;;;;5040326;28;20131;-66
2023/09/10 00:29:55;;;;;;;32.13;24.75;;;16.50;99.90;;;;;;5041352;28;20128;-66
2023/09/10 00:32:22;;;;;;;31.42;24.13;;;16.40;99.90;;;;;;5021715;28;20037;-66
2023/09/10 00:34:47;;;;;;;28.33;22.73;;;16.40;99.90;;;;;;5045110;28;20113;-65
2023/09/10 00:37:16;;;;;;;30.95;23.63;;;16.30;99.90;;;;;;5038335;28;20048;-65
2023/09/10 00:39:42;;;;;;;32.42;24.98;;;16.30;99.90;;;;;;5035072;28;20056;-65
2023/09/10 00:42:09;;;;;;;35.60;26.00;;;16.30;99.90;;;;;;5040441;28;20323;-65
2023/09/10 00:44:35;;;;;;;34.60;25.30;;;16.30;99.90;;;;;;5027644;28;20037;-66
2023/09/10 00:47:02;;;;;;;36.30;26.75;;;16.30;99.90;;;;;;5039397;28;20073;-65
2023/09/10 00:49:28;;;;;;;37.92;27.83;;;16.30;99.90;;;;;;5035324;28;20038;-65
2023/09/10 00:51:54;;;;;;;40.28;29.85;;;16.30;99.90;;;;;;5041214;28;20496;-66
2023/09/10 00:54:22;;;;;;;40.83;27.63;;;16.30;99.90;;;;;;5028672;28;20041;-66
2023/09/10 00:56:48;;;;;;;40.05;29.15;;;16.30;99.90;;;;;;5031704;28;20041;-66
2023/09/10 00:59:14;;;;;;;46.63;32.78;;;16.20;99.90;;;;;;5040184;28;20044;-65
2023/09/10 01:01:39;;;;;;;48.67;33.22;;;16.10;99.90;;;;;;5042930;28;20536;-66
2023/09/10 01:04:05;;;;;;;46.53;32.08;;;16.10;99.90;;;;;;5034093;28;20049;-65
2023/09/10 01:06:31;;;;;;;49.60;33.83;;;16.10;99.90;;;;;;5034047;28;20477;-65
2023/09/10 01:08:56;;;;;;;47.17;32.30;;;16.10;99.90;;;;;;5038157;28;20045;-65
2023/09/10 01:11:22;;;;;;;46.75;32.38;;;16.10;99.90;;;;;;5039652;28;20057;-66
2023/09/10 01:14:17;;;;;;;47.63;32.55;;;16.10;99.90;;;;;;5038436;28;20127;-65
2023/09/10 01:16:56;;;;;;;48.80;33.15;;;16.10;99.90;;;;;;5030870;28;20132;-65
2023/09/10 01:19:47;;;;;;;44.47;30.98;;;16.00;99.90;;;;;;5035949;28;20044;-66
2023/09/10 01:22:40;;;;;;;38.70;27.98;;;16.00;99.90;;;;;;5038190;28;20499;-66
2023/09/10 01:25:06;;;;;;;43.72;30.17;;;16.00;99.90;;;;;;5040382;28;20048;-66
2023/09/10 01:27:32;;;;;;;49.03;32.53;;;16.00;99.90;;;;;;5035464;28;20045;-66
2023/09/10 01:29:57;;;;;;;41.38;29.13;;;16.00;99.90;;;;;;5031926;28;20488;-65
2023/09/10 01:32:32;;;;;;;50.60;32.58;;;15.90;99.90;;;;;;5037976;28;20144;-66
2023/09/10 01:35:20;;;;;;;52.15;34.50;;;15.90;99.90;;;;;;5037187;28;20163;-65
2023/09/10 01:38:02;;;;;;;47.88;31.80;;;15.90;99.90;;;;;;5030026;28;20049;-65
2023/09/10 01:40:45;;;;;;;46.00;30.75;;;15.80;99.90;;;;;;5032379;28;20124;-65
2023/09/10 01:43:12;;;;;;;40.83;28.67;;;15.80;99.90;;;;;;5037958;28;20045;-65
2023/09/10 01:45:38;;;;;;;41.92;28.60;;;15.80;99.90;;;;;;5031176;28;20049;-66
2023/09/10 01:48:05;;;;;;;40.17;28.33;;;15.80;99.90;;;;;;5030794;28;20044;-66
2023/09/10 01:50:30;;;;;;;38.65;26.85;;;15.80;99.90;;;;;;5035805;28;20768;-66
2023/09/10 01:52:59;;;;;;;40.92;27.95;;;15.70;99.90;;;;;;5031030;28;20045;-66
2023/09/10 01:55:28;;;;;;;47.35;31.90;;;15.70;99.90;;;;;;5032738;28;20029;-65
2023/09/10 01:57:54;;;;;;;42.45;28.98;;;15.70;99.90;;;;;;5035274;28;20045;-66
2023/09/10 02:00:21;;;;;;;41.95;29.17;;;15.60;99.90;;;;;;5028571;28;20041;-66
2023/09/10 02:02:46;;;;;;;43.22;29.63;;;15.60;99.90;;;;;;5037254;28;20448;-66
2023/09/10 02:05:12;;;;;;;44.70;30.63;;;15.60;99.90;;;;;;5030265;28;20049;-66
2023/09/10 02:07:37;;;;;;;50.47;32.70;;;15.60;99.90;;;;;;5033178;28;20556;-66
2023/09/10 02:10:03;;;;;;;47.80;31.02;;;15.60;99.90;;;;;;5038569;28;20036;-65
2023/09/10 02:12:29;;;;;;;47.90;29.90;;;15.60;99.90;;;;;;5038657;28;20065;-65
2023/09/10 02:14:57;;;;;;;41.78;28.98;;;15.60;99.90;;;;;;5030535;28;20029;-66
2023/09/10 02:17:23;;;;;;;43.28;30.63;;;15.50;99.90;;;;;;5036500;28;20041;-65
2023/09/10 02:19:49;;;;;;;43.65;28.77;;;15.60;99.90;;;;;;5034935;28;20047;-66
2023/09/10 02:22:14;;;;;;;46.83;31.52;;;15.50;99.90;;;;;;5034461;28;20049;-66
2023/09/10 02:24:40;;;;;;;47.25;32.10;;;15.50;99.90;;;;;;5040668;28;20124;-66
2023/09/10 02:27:05;;;;;;;46.22;31.83;;;15.50;99.90;;;;;;5030856;28;20900;-66
2023/09/10 02:29:31;;;;;;;51.75;34.08;;;15.40;99.90;;;;;;5033341;28;20476;-67
2023/09/10 02:31:56;;;;;;;49.83;33.88;;;15.50;99.90;;;;;;5035141;28;20326;-66
2023/09/10 02:34:22;;;;;;;52.95;34.17;;;15.40;99.90;;;;;;5034124;28;20034;-66
2023/09/10 02:36:47;;;;;;;54.65;34.72;;;15.50;99.90;;;;;;5045912;28;20041;-66
2023/09/10 02:39:13;;;;;;;56.78;35.67;;;15.50;99.90;;;;;;5030239;28;20110;-66
2023/09/10 02:41:38;;;;;;;55.75;34.38;;;15.50;99.90;;;;;;5032873;28;20041;-66
2023/09/10 02:44:04;;;;;;;53.90;35.20;;;15.40;99.90;;;;;;5037193;28;20044;-66
2023/09/10 02:46:30;;;;;;;53.53;34.22;;;15.30;99.90;;;;;;5028942;28;20170;-65
2023/09/10 02:48:55;;;;;;;58.80;36.83;;;15.30;99.90;;;;;;5030180;28;20044;-66
2023/09/10 02:51:21;;;;;;;51.28;32.78;;;15.30;99.90;;;;;;5045552;28;20128;-66
2023/09/10 02:53:48;;;;;;;53.85;33.53;;;15.30;99.90;;;;;;5041098;28;20490;-66
2023/09/10 02:56:14;;;;;;;53.58;34.78;;;15.20;99.90;;;;;;5036782;28;20051;-66
2023/09/10 02:58:40;;;;;;;47.75;32.25;;;15.20;99.90;;;;;;5040352;28;20045;-66
2023/09/10 03:01:06;;;;;;;47.45;30.58;;;15.20;99.90;;;;;;5032046;28;20108;-66
2023/09/10 03:03:33;;;;;;;55.80;34.10;;;15.20;99.90;;;;;;5042988;28;20156;-66
2023/09/10 03:05:58;;;;;;;49.78;32.05;;;15.20;99.90;;;;;;5041962;28;20037;-66
2023/09/10 03:08:24;;;;;;;49.33;30.73;;;15.20;99.90;;;;;;5036540;28;20032;-66
2023/09/10 03:10:49;;;;;;;47.55;30.17;;;15.20;99.90;;;;;;5038788;28;20036;-66
2023/09/10 03:13:15;;;;;;;48.33;32.22;;;15.20;99.90;;;;;;5043753;28;20113;-66
2023/09/10 03:15:40;;;;;;;47.88;30.83;;;15.20;99.90;;;;;;5045558;28;20038;-66
2023/09/10 03:18:06;;;;;;;54.53;33.35;;;15.20;99.90;;;;;;5033365;28;20041;-66
2023/09/10 03:20:31;;;;;;;48.65;30.88;;;15.20;99.90;;;;;;5040550;28;20668;-66
2023/09/10 03:22:59;;;;;;;49.45;30.65;;;15.10;99.90;;;;;;5044207;28;20048;-66
2023/09/10 03:25:25;;;;;;;52.85;32.17;;;15.10;99.90;;;;;;5042981;28;20162;-66
2023/09/10 03:27:51;;;;;;;47.33;29.95;;;15.10;99.90;;;;;;5039453;28;20037;-66
2023/09/10 03:30:17;;;;;;;44.58;30.40;;;15.10;99.90;;;;;;5036156;28;20473;-66
2023/09/10 03:32:43;;;;;;;43.08;28.98;;;15.00;99.90;;;;;;5040828;28;20037;-66
2023/09/10 03:35:10;;;;;;;44.88;30.75;;;15.00;99.90;;;;;;5037686;28;20037;-66
2023/09/10 03:37:36;;;;;;;48.97;29.58;;;15.00;99.90;;;;;;5038147;28;20160;-66
2023/09/10 03:40:04;;;;;;;42.72;27.85;;;14.90;99.90;;;;;;5037667;28;20141;-66
2023/09/10 03:42:30;;;;;;;47.63;30.15;;;15.00;99.90;;;;;;5040694;28;20169;-66
2023/09/10 03:44:55;;;;;;;46.90;30.83;;;14.90;99.90;;;;;;5035111;28;20044;-65
2023/09/10 03:47:21;;;;;;;46.92;29.58;;;14.90;99.90;;;;;;5040752;28;20612;-66
2023/09/10 03:49:46;;;;;;;46.55;30.05;;;14.90;99.90;;;;;;5036963;28;20024;-66
2023/09/10 03:52:17;;;;;;;45.08;29.58;;;14.90;99.90;;;;;;5021540;28;20043;-66
2023/09/10 03:54:42;;;;;;;;;;;14.90;99.90;;;;;;5046268;28;20045;-66
2023/09/10 03:57:08;;;;;;;49.75;29.77;;;14.80;99.90;;;;;;5035099;28;19923;-66
2023/09/10 03:59:33;;;;;;;42.13;27.05;;;14.80;99.90;;;;;;5021832;28;20393;-68
2023/09/10 04:01:59;;;;;;;38.95;26.25;;;14.80;99.90;;;;;;5038042;28;20064;-66
2023/09/10 04:04:25;;;;;;;37.22;25.73;;;14.70;99.90;;;;;;5032102;28;20136;-66
2023/09/10 04:06:51;;;;;;;42.03;28.02;;;14.70;99.90;;;;;;5040292;28;20215;-66
2023/09/10 04:09:16;;;;;;;35.97;24.48;;;14.70;99.90;;;;;;5045142;28;20500;-66
2023/09/10 04:11:42;;;;;;;41.40;27.13;;;14.70;99.90;;;;;;5043173;28;20041;-66
2023/09/10 04:14:08;;;;;;;39.10;26.20;;;14.70;99.90;;;;;;5037258;28;20789;-66
2023/09/10 04:16:33;;;;;;;37.17;26.35;;;14.70;99.90;;;;;;5038726;28;20037;-66
2023/09/10 04:18:59;;;;;;;37.22;26.10;;;14.60;99.90;;;;;;5040088;28;20118;-66
2023/09/10 04:21:24;;;;;;;36.55;25.75;;;14.60;99.90;;;;;;5037917;28;20048;-66
2023/09/10 04:23:50;;;;;;;37.63;26.33;;;14.60;99.90;;;;;;5034470;28;20041;-66
2023/09/10 04:26:15;;;;;;;34.75;24.38;;;14.60;99.90;;;;;;5036502;28;20037;-66
2023/09/10 04:28:41;;;;;;;35.80;24.67;;;14.60;99.90;;;;;;5044817;28;20051;-66
2023/09/10 04:31:13;;;;;;;33.92;24.40;;;14.60;99.90;;;;;;5037184;28;20329;-66
2023/09/10 04:33:38;;;;;;;31.80;23.63;;;14.60;99.90;;;;;;5041652;28;20136;-66
2023/09/10 04:36:04;;;;;;;25.30;20.23;;;14.60;99.90;;;;;;5032687;28;20042;-66
2023/09/10 04:38:30;;;;;;;29.10;21.63;;;14.60;99.90;;;;;;5044276;28;20041;-66
2023/09/10 04:40:55;;;;;;;26.95;20.50;;;14.50;99.90;;;;;;5040647;28;20135;-66
2023/09/10 04:43:21;;;;;;;28.25;20.65;;;14.60;99.90;;;;;;5035579;28;20622;-66
2023/09/10 04:45:47;;;;;;;24.98;19.25;;;14.50;99.90;;;;;;5037857;28;20116;-66
2023/09/10 04:48:13;;;;;;;27.98;20.30;;;14.50;99.90;;;;;;5033407;28;20045;-66
2023/09/10 04:50:39;;;;;;;26.77;19.38;;;14.50;99.90;;;;;;5031521;28;20037;-66
2023/09/10 04:53:05;;;;;;;26.25;19.27;;;14.50;99.90;;;;;;5038781;28;20033;-66
2023/09/10 04:55:31;;;;;;;24.20;19.00;;;14.40;99.90;;;;;;5029058;28;20037;-66
2023/09/10 04:57:56;;;;;;;26.17;20.05;;;14.30;99.90;;;;;;5030799;28;20064;-66
2023/09/10 05:00:22;;;;;;;25.75;18.77;;;14.30;99.90;;;;;;5037846;28;20139;-66
2023/09/10 05:02:47;;;;;;;25.13;19.95;;;14.30;99.90;;;;;;5037092;28;20053;-66
2023/09/10 05:05:14;;;;;;;28.17;21.50;;;14.30;99.90;;;;;;5033198;28;20045;-66
2023/09/10 05:07:40;;;;;;;27.92;20.52;;;14.30;99.90;;;;;;5030283;28;20049;-66
2023/09/10 05:10:06;;;;;;;26.85;19.48;;;14.30;99.90;;;;;;5040377;28;20335;-66
2023/09/10 05:12:31;;;;;;;27.75;19.05;;;14.20;99.90;;;;;;5045063;28;20079;-66
2023/09/10 05:14:57;;;;;;;25.58;19.23;;;14.20;99.90;;;;;;5037459;28;20044;-66
2023/09/10 05:17:22;;;;;;;27.13;20.55;;;14.20;99.90;;;;;;5033538;28;20051;-66
2023/09/10 05:19:48;;;;;;;29.33;19.70;;;14.20;99.90;;;;;;5036485;28;20065;-66
2023/09/10 05:22:13;;;;;;;27.55;20.52;;;14.20;99.90;;;;;;5039290;28;20075;-66
2023/09/10 05:24:39;;;;;;;27.52;19.50;;;14.20;99.90;;;;;;5038801;28;20080;-66
2023/09/10 05:27:04;;;;;;;26.17;20.30;;;14.20;99.90;;;;;;5034490;28;20052;-66
2023/09/10 05:29:30;;;;;;;31.90;20.02;;;14.30;99.90;;;;;;5033526;28;20053;-66
2023/09/10 05:31:55;;;;;;;25.35;19.23;;;14.30;99.90;;;;;;5027933;28;20033;-66
2023/09/10 05:34:21;;;;;;;26.52;18.80;;;14.30;99.90;;;;;;5031145;28;20041;-66
2023/09/10 05:36:48;;;;;;;24.33;18.77;;;14.30;99.90;;;;;;5026746;28;20045;-67
2023/09/10 05:39:14;;;;;;;23.38;16.88;;;14.40;99.90;;;;;;5033795;28;20044;-67
2023/09/10 05:41:39;;;;;;;22.80;17.70;;;14.40;99.90;;;;;;5030169;28;20556;-66
2023/09/10 05:44:05;;;;;;;24.15;18.52;;;14.40;99.90;;;;;;5038907;28;20076;-66
2023/09/10 05:46:31;;;;;;;25.13;18.88;;;14.50;99.90;;;;;;5037259;28;20048;-66
2023/09/10 05:48:56;;;;;;;23.50;18.35;;;14.50;99.90;;;;;;5029181;28;20033;-66
2023/09/10 05:51:22;;;;;;;26.48;17.80;;;14.60;99.90;;;;;;5036914;28;20037;-66
2023/09/10 05:53:47;;;;;;;25.88;17.65;;;14.60;99.90;;;;;;5036990;28;20072;-66
2023/09/10 05:56:13;;;;;;;21.88;16.60;;;14.70;99.90;;;;;;5032549;28;20441;-66
2023/09/10 05:58:39;;;;;;;19.90;16.08;;;14.70;99.90;;;;;;5034011;28;20041;-66
2023/09/10 06:01:04;;;;;;;21.55;16.52;;;14.80;99.90;;;;;;5030257;28;20028;-66
2023/09/10 06:03:30;;;;;;;23.35;17.58;;;14.90;99.90;;;;;;5031299;28;20041;-67
2023/09/10 06:06:01;;;;;;;25.67;18.30;;;14.90;99.90;;;;;;5037774;28;20132;-66
2023/09/10 06:08:31;;;;;;;25.70;18.38;;;15.00;99.90;;;;;;5032029;28;20048;-66
2023/09/10 06:10:56;;;;;;;24.77;18.52;;;15.00;99.90;;;;;;5039370;28;20207;-66
2023/09/10 06:13:22;;;;;;;24.63;17.42;;;15.00;99.90;;;;;;5037218;28;20432;-66
2023/09/10 06:15:48;;;;;;;26.33;18.42;;;15.20;99.90;;;;;;5029176;28;20117;-66
2023/09/10 06:18:13;;;;;;;23.38;17.85;;;15.30;99.90;;;;;;5038464;28;20378;-66
2023/09/10 06:20:39;;;;;;;26.25;18.45;;;15.30;99.90;;;;;;5019048;28;20053;-66
2023/09/10 06:23:04;;;;;;;26.88;19.25;;;15.50;99.90;;;;;;5041996;28;20033;-66
2023/09/10 06:25:30;;;;;;;26.17;20.45;;;15.50;99.90;;;;;;5037949;28;20045;-66
2023/09/10 06:27:56;;;;;;;26.92;19.58;;;15.60;99.90;;;;;;5040018;28;20065;-66
2023/09/10 06:30:21;;;;;;;24.73;19.17;;;15.70;99.90;;;;;;5038742;28;20045;-66
2023/09/10 06:32:50;;;;;;;26.33;19.38;;;15.90;99.90;;;;;;5033709;28;20365;-66
2023/09/10 06:35:16;;;;;;;26.55;20.45;;;16.10;99.90;;;;;;5038711;28;20032;-66
2023/09/10 06:37:42;;;;;;;24.60;19.00;;;16.30;99.90;;;;;;5039367;28;20365;-66
2023/09/10 06:40:09;;;;;;;21.90;17.90;;;16.70;99.90;;;;;;5034605;28;20045;-66
2023/09/10 06:42:35;;;;;;;22.60;18.80;;;16.90;99.90;;;;;;5035576;28;20471;-66
2023/09/10 06:45:00;;;;;;;24.27;19.55;;;17.20;99.90;;;;;;5034002;28;20125;-66
2023/09/10 06:47:27;;;;;;;24.92;20.55;;;17.30;99.90;;;;;;5036674;28;20040;-66
2023/09/10 06:49:53;;;;;;;25.55;21.33;;;17.50;99.90;;;;;;5039949;28;20372;-66
2023/09/10 06:52:18;;;;;;;21.17;18.13;;;17.80;99.90;;;;;;5038614;28;20114;-66
2023/09/10 06:54:44;;;;;;;19.92;17.65;;;18.00;99.90;;;;;;5045264;28;20472;-67
2023/09/10 06:57:09;;;;;;;20.38;17.63;;;18.10;99.90;;;;;;5031410;28;20036;-66
2023/09/10 06:59:35;;;;;;;22.00;19.50;;;18.30;99.90;;;;;;5037591;28;20041;-66
2023/09/10 07:02:01;;;;;;;24.63;20.92;;;18.60;99.90;;;;;;5034262;28;20365;-66
2023/09/10 07:04:26;;;;;;;28.15;22.73;;;18.90;99.90;;;;;;5035860;28;20041;-67
2023/09/10 07:06:53;;;;;;;33.40;26.13;;;19.10;99.90;;;;;;5037546;28;20038;-66
2023/09/10 07:09:21;;;;;;;33.22;25.30;;;19.30;99.90;;;;;;5040350;28;20449;-67
2023/09/10 07:11:48;;;;;;;29.63;23.83;;;19.60;99.90;;;;;;5032077;28;20631;-67
2023/09/10 07:14:17;;;;;;;33.35;26.50;;;19.80;99.90;;;;;;5038588;28;20044;-66
2023/09/10 07:16:44;;;;;;;29.73;24.17;;;20.00;99.90;;;;;;5035776;28;20108;-66
2023/09/10 07:19:11;;;;;;;26.48;22.88;;;20.20;99.90;;;;;;5037292;28;20042;-67
2023/09/10 07:21:37;;;;;;;28.92;24.50;;;20.50;99.90;;;;;;5020942;28;20339;-67
2023/09/10 07:24:06;;;;;;;27.65;22.85;;;20.70;99.90;;;;;;5042035;28;20029;-67
2023/09/10 07:26:32;;;;;;;27.90;24.77;;;20.80;99.90;;;;;;5046593;28;20080;-67
2023/09/10 07:28:58;;;;;;;29.00;24.10;;;21.00;99.90;;;;;;5037398;28;20037;-67
2023/09/10 07:31:23;;;;;;;31.20;26.10;;;21.20;99.90;;;;;;5042442;28;20136;-67
2023/09/10 07:33:49;;;;;;;28.75;24.10;;;21.30;99.90;;;;;;5034808;28;20048;-67
2023/09/10 07:36:15;;;;;;;28.48;24.02;;;21.60;99.90;;;;;;5025689;28;20155;-67
2023/09/10 07:38:40;;;;;;;26.58;22.23;;;21.90;99.90;;;;;;5031263;28;20033;-67
2023/09/10 07:41:06;;;;;;;29.45;24.23;;;22.00;99.90;;;;;;5038100;28;20037;-67
2023/09/10 07:43:32;;;;;;;26.90;22.95;;;22.20;99.90;;;;;;5039358;28;20079;-67
2023/09/10 07:45:57;;;;;;;27.15;23.38;;;22.40;99.90;;;;;;5040309;28;20080;-67
2023/09/10 07:48:23;;;;;;;28.00;21.73;;;22.50;99.40;;;;;;5034911;28;20152;-67
2023/09/10 07:50:58;;;;;;;31.77;26.48;;;22.50;98.90;;;;;;5034961;28;20477;-67
2023/09/10 07:53:24;;;;;;;30.80;25.40;;;22.50;97.50;;;;;;5040386;28;20037;-67
2023/09/10 07:55:50;;;;;;;30.35;25.60;;;22.50;98.60;;;;;;5030377;28;20520;-67
2023/09/10 07:58:16;;;;;;;31.83;26.63;;;22.50;97.90;;;;;;5041856;28;20564;-68
2023/09/10 08:00:41;;;;;;;31.52;25.95;;;22.60;97.10;;;;;;5034144;28;20037;-67
2023/09/10 08:03:07;;;;;;;29.50;25.23;;;22.50;96.30;;;;;;5051575;28;20059;-67
2023/09/10 08:05:34;;;;;;;31.13;25.45;;;22.50;95.80;;;;;;5038379;28;20040;-68
2023/09/10 08:08:03;;;;;;;30.05;23.83;;;22.50;95.30;;;;;;5037894;28;20052;-68
2023/09/10 08:10:32;;;;;;;26.73;22.23;;;22.50;94.70;;;;;;5043367;28;20049;-68
2023/09/10 08:12:58;;;;;;;27.75;23.65;;;22.60;93.80;;;;;;5041234;28;20045;-67
2023/09/10 08:15:24;;;;;;;28.40;23.52;;;22.70;93.30;;;;;;5057159;28;20072;-67
2023/09/10 08:17:52;;;;;;;25.40;21.77;;;22.80;93.10;;;;;;5040676;28;20091;-68
2023/09/10 08:20:18;;;;;;;26.52;21.55;;;22.90;93.10;;;;;;5043280;28;20041;-67
2023/09/10 08:22:44;;;;;;;21.52;18.88;;;23.10;92.50;;;;;;5052600;28;20041;-67
2023/09/10 08:25:09;;;;;;;23.60;20.40;;;23.40;91.80;;;;;;5034311;28;20086;-68
2023/09/10 08:27:35;;;;;;;24.45;19.23;;;23.80;90.80;;;;;;5044378;28;20041;-68
2023/09/10 08:30:05;;;;;;;24.50;19.77;;;24.30;89.80;;;;;;5037134;28;20025;-69
2023/09/10 08:32:35;;;;;;;24.52;20.58;;;24.80;87.40;;;;;;5046643;28;20032;-68
2023/09/10 08:35:01;;;;;;;19.60;15.70;;;25.30;85.20;;;;;;5036206;28;20088;-67
2023/09/10 08:37:26;;;;;;;22.02;18.58;;;25.60;83.00;;;;;;5043901;28;20159;-68
2023/09/10 08:39:53;;;;;;;19.80;17.70;;;26.00;81.70;;;;;;5035352;28;20069;-68
2023/09/10 08:42:45;;;;;;;20.67;18.10;;;26.10;80.20;;;;;;5040132;28;20036;-68
2023/09/10 08:45:11;;;;;;;22.38;17.90;;;26.50;79.40;;;;;;5039024;28;20401;-67
2023/09/10 08:47:39;;;;;;;19.60;16.73;;;26.90;78.80;;;;;;5040121;28;20129;-69
2023/09/10 08:50:10;;;;;;;21.60;18.33;;;26.90;77.60;;;;;;5033956;28;20045;-68
2023/09/10 08:52:38;;;;;;;19.27;16.02;;;26.60;76.40;;;;;;5037830;28;20449;-68
2023/09/10 08:55:05;;;;;;;16.73;14.50;;;26.30;77.00;;;;;;5032572;28;20041;-68
2023/09/10 08:57:31;;;;;;;18.55;15.50;;;26.10;77.90;;;;;;5039699;28;20151;-69
2023/09/10 08:59:57;;;;;;;17.10;15.30;;;25.90;77.00;;;;;;5034252;28;20045;-69
2023/09/10 09:02:23;;;;;;;19.00;15.85;;;25.70;76.90;;;;;;5039385;28;20058;-68
2023/09/10 09:04:48;;;;;;;23.60;18.85;;;25.70;77.00;;;;;;5045069;28;20143;-68
2023/09/10 09:07:18;;;;;;;21.02;16.90;;;25.40;76.70;;;;;;5034872;28;20094;-68
2023/09/10 09:09:50;;;;;;;15.15;13.45;;;25.40;76.30;;;;;;5047700;28;20148;-69
2023/09/10 09:12:16;;;;;;;19.00;14.80;;;25.40;76.20;;;;;;5045314;28;20033;-68
2023/09/10 09:14:43;;;;;;;18.58;16.65;;;25.40;76.20;;;;;;5036433;28;20047;-68
2023/09/10 09:17:13;;;;;;;17.23;14.15;;;25.50;75.80;;;;;;5047368;28;20045;-70
2023/09/10 09:19:42;;;;;;;;;;;25.50;75.70;;;;;;5041313;28;20891;-69
2023/09/10 09:22:08;;;;;;;19.88;16.85;;;25.30;75.10;;;;;;5014978;28;20242;-68
2023/09/10 09:24:34;;;;;;;23.60;14.63;;;25.20;75.90;;;;;;5046460;28;20107;-67
2023/09/10 09:27:01;;;;;;;17.85;13.90;;;25.20;75.40;;;;;;5049969;28;20053;-68
2023/09/10 09:29:29;;;;;;;16.00;12.45;;;25.20;75.30;;;;;;5043442;28;20048;-68
2023/09/10 09:31:55;;;;;;;15.32;12.82;;;25.20;75.40;;;;;;5039365;28;20037;-67
2023/09/10 09:34:20;;;;;;;13.68;9.70;;;25.30;74.90;;;;;;5049407;28;20473;-68
2023/09/10 09:36:50;;;;;;;13.77;12.10;;;25.30;74.20;;;;;;5046209;28;20041;-69
2023/09/10 09:39:17;;;;;;;15.50;12.40;;;25.40;72.90;;;;;;5043955;28;20116;-70
2023/09/10 09:41:53;;;;;;;14.77;11.57;;;25.40;73.50;;;;;;5042430;28;20041;-68
2023/09/10 09:44:19;;;;;;;12.75;10.52;;;25.30;73.40;;;;;;5027214;28;20091;-68
2023/09/10 09:46:46;;;;;;;12.77;10.95;;;25.40;73.10;;;;;;5028668;28;20055;-69
2023/09/10 09:49:12;;;;;;;16.30;11.20;;;25.50;73.00;;;;;;5037978;28;20178;-69
2023/09/10 09:51:40;;;;;;;14.88;10.57;;;25.50;72.70;;;;;;5041557;28;20041;-68
2023/09/10 09:54:09;;;;;;;11.98;9.02;;;25.50;72.40;;;;;;5041807;28;20229;-67
2023/09/10 09:56:38;;;;;;;12.52;9.32;;;25.50;72.60;;;;;;5047611;28;20041;-68
2023/09/10 09:59:04;;;;;;;13.95;10.90;;;25.50;73.00;;;;;;5040718;28;20077;-67
2023/09/10 10:01:33;;;;;;;13.52;11.40;;;25.70;72.70;;;;;;5046496;28;20040;-68
2023/09/10 10:03:59;;;;;;;16.73;13.52;;;25.90;71.80;;;;;;5049034;28;20066;-68
2023/09/10 10:06:25;;;;;;;15.30;11.43;;;25.80;71.40;;;;;;5044707;28;20120;-69
2023/09/10 10:08:51;;;;;;;14.95;11.70;;;25.80;71.60;;;;;;5043118;28;20120;-67
2023/09/10 10:11:30;;;;;;;12.32;9.68;;;25.90;71.80;;;;;;5043680;28;20071;-67
2023/09/10 10:14:00;;;;;;;14.20;11.10;;;25.90;71.80;;;;;;5043722;28;20112;-68
2023/09/10 10:16:29;;;;;;;12.98;11.23;;;25.90;70.80;;;;;;5045052;28;20067;-67
2023/09/10 10:18:56;;;;;;;14.18;11.80;;;25.90;71.00;;;;;;5023651;28;20045;-67
2023/09/10 10:21:23;;;;;;;15.20;11.25;;;26.00;70.90;;;;;;5030394;28;20120;-68
2023/09/10 10:23:56;;;;;;;12.23;10.60;;;26.00;70.90;;;;;;5046422;28;20033;-68
2023/09/10 10:26:22;;;;;;;15.43;11.85;;;26.00;71.20;;;;;;5040120;28;20381;-68
2023/09/10 10:28:51;;;;;;;10.15;9.10;;;26.00;71.30;;;;;;5044551;28;20033;-68
2023/09/10 10:31:21;;;;;;;13.80;11.63;;;26.10;71.50;;;;;;5040406;28;20051;-68
2023/09/10 10:34:01;;;;;;;14.02;10.48;;;26.00;71.00;;;;;;5046088;28;20755;-68
2023/09/10 10:36:39;;;;;;;14.13;11.40;;;26.00;70.30;;;;;;5043502;28;20044;-68
2023/09/10 10:39:09;;;;;;;13.05;10.05;;;26.00;70.90;;;;;;5044378;28;20102;-67
2023/09/10 10:41:38;;;;;;;12.23;10.88;;;26.00;71.40;;;;;;5039958;28;20128;-67
2023/09/10 10:44:30;;;;;;;13.15;10.43;;;26.00;71.40;;;;;;5020151;28;20114;-68
2023/09/10 10:47:01;;;;;;;16.02;10.88;;;26.00;71.00;;;;;;5038026;28;20132;-68
2023/09/10 10:49:30;;;;;;;12.20;10.93;;;26.10;70.40;;;;;;5048354;28;20037;-68
2023/09/10 10:52:01;;;;;;;11.63;9.73;;;26.10;70.60;;;;;;5038662;28;20325;-68
2023/09/10 10:54:28;;;;;;;11.45;9.27;;;26.20;70.60;;;;;;5042884;28;20033;-67
2023/09/10 10:56:55;;;;;;;11.30;8.80;;;26.20;70.60;;;;;;5044571;28;20041;-68
2023/09/10 10:59:21;;;;;;;12.45;10.15;;;26.30;70.60;;;;;;5025806;28;20058;-68
2023/09/10 11:02:09;;;;;;;13.48;10.60;;;26.30;70.60;;;;;;5038279;28;20500;-68
2023/09/10 11:04:35;;;;;;;9.90;8.50;;;26.30;70.50;;;;;;5046659;28;20088;-67
2023/09/10 11:07:30;;;;;;;14.25;9.68;;;26.30;70.80;;;;;;5041610;28;20445;-68
2023/09/10 11:09:58;;;;;;;19.65;11.80;;;26.40;70.00;;;;;;5034583;28;20077;-67
2023/09/10 11:12:25;;;;;;;13.35;9.65;;;26.50;69.50;;;;;;5044632;28;20083;-68
2023/09/10 11:14:59;;;;;;;13.82;10.20;;;26.50;69.80;;;;;;5039802;28;20037;-67
2023/09/10 11:17:32;;;;;;;14.05;10.02;;;26.30;69.80;;;;;;5046341;28;20072;-66
2023/09/10 11:19:58;;;;;;;10.73;8.82;;;26.40;69.60;;;;;;5047431;28;20088;-66
2023/09/10 11:22:24;;;;;;;14.65;9.68;;;26.40;69.90;;;;;;5045656;28;20130;-66
2023/09/10 11:25:04;;;;;;;15.10;10.85;;;26.50;70.20;;;;;;5048908;28;20045;-66
2023/09/10 11:27:30;;;;;;;12.32;10.13;;;26.50;69.60;;;;;;5047899;28;20364;-67
2023/09/10 11:30:14;;;;;;;12.07;9.30;;;26.50;69.90;;;;;;5047892;28;20035;-67
2023/09/10 11:32:41;;;;;;;12.13;9.70;;;26.50;70.30;;;;;;5049264;28;20063;-68
2023/09/10 11:35:19;;;;;;;13.27;10.32;;;26.60;70.10;;;;;;5050395;28;20079;-67
2023/09/10 11:37:48;;;;;;;13.13;10.23;;;26.60;70.10;;;;;;5047587;28;20055;-67
2023/09/10 11:40:14;;;;;;;14.60;10.85;;;26.60;69.80;;;;;;5050811;28;20049;-67
2023/09/10 11:42:44;;;;;;;13.38;9.48;;;26.70;69.90;;;;;;5032256;28;20057;-66
2023/09/10 11:45:11;;;;;;;13.00;10.15;;;26.90;70.00;;;;;;5047753;28;20049;-66
2023/09/10 11:47:44;;;;;;;14.43;10.00;;;26.90;69.70;;;;;;5038412;28;20045;-66
2023/09/10 11:50:11;;;;;;;15.63;9.90;;;27.00;69.50;;;;;;5043100;28;20474;-67
2023/09/10 11:52:37;;;;;;;13.57;9.02;;;27.10;69.40;;;;;;5051590;28;20040;-67
2023/09/10 11:55:09;;;;;;;12.65;9.38;;;27.10;69.20;;;;;;5048711;28;20377;-68
2023/09/10 11:57:36;;;;;;;15.63;8.77;;;27.10;68.50;;;;;;5046259;28;20041;-67
2023/09/10 12:00:03;;;;;;;12.02;10.38;;;27.00;68.40;;;;;;5035430;28;20140;-66
2023/09/10 12:02:28;;;;;;;15.30;10.07;;;27.00;68.40;;;;;;5029341;28;20053;-66
2023/09/10 12:04:58;;;;;;;14.98;10.48;;;27.10;68.40;;;;;;5048482;28;20072;-67
2023/09/10 12:07:23;;;;;;;12.93;9.77;;;27.10;68.20;;;;;;5050724;28;20049;-67
2023/09/10 12:09:49;;;;;;;17.00;9.35;;;27.10;68.10;;;;;;5044854;28;20891;-68
2023/09/10 12:12:21;;;;;;;12.75;9.40;;;27.20;68.30;;;;;;5047089;28;20036;-66
2023/09/10 12:14:48;;;;;;;10.52;9.23;;;27.10;67.90;;;;;;5043766;28;20033;-67
2023/09/10 12:17:14;;;;;;;12.77;8.88;;;27.30;68.00;;;;;;5051191;28;20045;-67
2023/09/10 12:19:41;;;;;;;16.08;10.05;;;27.40;68.00;;;;;;5043452;28;20152;-67
2023/09/10 12:22:09;;;;;;;12.23;9.65;;;27.50;67.90;;;;;;5050220;28;20456;-68
2023/09/10 12:24:38;;;;;;;14.73;9.57;;;27.60;67.50;;;;;;5049959;28;20123;-67
2023/09/10 12:27:04;;;;;;;11.10;8.87;;;27.50;67.20;;;;;;5051505;28;20044;-67
2023/09/10 12:29:30;;;;;;;13.30;10.18;;;27.50;67.70;;;;;;5029265;28;20603;-68